createdAt,value
2023-03-11T00:00:06.727Z,-5.49
2023-03-11T00:00:37.818Z,-5.84
2023-03-11T00:01:09.716Z,-6.56
2023-03-11T00:01:36.726Z,-6.68
2023-03-11T00:01:57.612Z,-6.74
2023-03-11T00:02:29.059Z,-7.58
2023-03-11T00:03:01.059Z,-7.50
2023-03-11T00:03:33.760Z,-6.70
2023-03-11T00:04:04.874Z,-7.80
2023-03-11T00:04:37.771Z,-7.86
2023-03-11T00:05:09.914Z,-7.13
2023-03-11T00:05:37.348Z,-7.02
2023-03-11T00:05:57.954Z,-7.17
2023-03-11T00:06:28.818Z,-7.20
2023-03-11T00:07:00.807Z,-6.95
2023-03-11T00:07:17.324Z,-6.86
2023-03-11T00:07:38.429Z,-7.20
2023-03-11T00:08:04.774Z,-6.42
2023-03-11T00:08:37.703Z,-5.98
2023-03-11T00:09:08.853Z,-5.80
2023-03-11T00:09:37.229Z,-6.98
2023-03-11T00:09:57.276Z,-7.58
2023-03-11T00:10:30.239Z,-7.58
2023-03-11T00:11:00.752Z,-7.76
2023-03-11T00:11:32.640Z,-7.28
2023-03-11T00:12:04.878Z,-8.45
2023-03-11T00:12:38.008Z,-7.71
2023-03-11T00:13:09.158Z,-6.70
2023-03-11T00:13:36.366Z,-6.90
2023-03-11T00:13:57.569Z,-6.51
2023-03-11T00:14:28.970Z,-7.87
2023-03-11T00:15:01.867Z,-7.63
2023-03-11T00:15:32.692Z,-6.86
2023-03-11T00:16:04.822Z,-6.90
2023-03-11T00:16:38.041Z,-7.29
2023-03-11T00:17:08.899Z,-7.29
2023-03-11T00:17:36.478Z,-7.18
2023-03-11T00:17:57.498Z,-6.61
2023-03-11T00:18:30.131Z,-5.83
2023-03-11T00:19:00.727Z,-7.40
2023-03-11T00:19:32.711Z,-7.66
2023-03-11T00:20:06.018Z,-7.02
2023-03-11T00:20:37.653Z,-7.05
2023-03-11T00:21:09.170Z,-6.90
2023-03-11T00:21:36.452Z,-6.61
2023-03-11T00:21:57.527Z,-8.28
2023-03-11T00:22:28.827Z,-7.46
2023-03-11T00:23:00.770Z,-7.77
2023-03-11T00:23:32.713Z,-7.02
2023-03-11T00:24:04.881Z,-6.86
2023-03-11T00:24:37.968Z,-6.95
2023-03-11T00:25:09.335Z,-7.29
2023-03-11T00:25:37.602Z,-6.29
2023-03-11T00:25:58.182Z,-6.86
2023-03-11T00:26:28.997Z,-6.61
2023-03-11T00:27:00.872Z,-6.95
2023-03-11T00:27:32.583Z,-6.51
2023-03-11T00:28:04.771Z,-6.51
2023-03-11T00:28:37.633Z,-6.13
2023-03-11T00:29:08.880Z,-5.55
2023-03-11T00:29:36.364Z,-6.61
2023-03-11T00:29:57.580Z,-6.39
2023-03-11T00:30:29.841Z,-7.60
2023-03-11T00:31:00.857Z,-6.61
2023-03-11T00:31:32.772Z,-6.82
2023-03-11T00:32:04.828Z,-7.29
2023-03-11T00:32:37.713Z,-7.50
2023-03-11T00:33:09.142Z,-6.34
2023-03-11T00:33:36.773Z,-7.32
2023-03-11T00:33:57.280Z,-7.00
2023-03-11T00:34:28.952Z,-6.65
2023-03-11T00:35:01.754Z,-7.13
2023-03-11T00:35:32.687Z,-5.87
2023-03-11T00:36:05.028Z,-7.13
2023-03-11T00:36:37.748Z,-7.00
2023-03-11T00:37:08.854Z,-6.57
2023-03-11T00:37:36.299Z,-7.69
2023-03-11T00:37:57.537Z,-7.09
2023-03-11T00:38:29.228Z,-7.47
2023-03-11T00:39:01.122Z,-6.93
2023-03-11T00:39:32.657Z,-7.44
2023-03-11T00:40:06.091Z,-7.64
2023-03-11T00:40:38.039Z,-7.46
2023-03-11T00:41:08.910Z,-6.76
2023-03-11T00:41:36.390Z,-7.61
2023-03-11T00:41:57.210Z,-7.07
2023-03-11T00:42:28.912Z,-7.89
2023-03-11T00:43:00.749Z,-6.86
2023-03-11T00:43:32.811Z,-7.10
2023-03-11T00:44:04.877Z,-6.89
2023-03-11T00:44:37.640Z,-6.89
2023-03-11T00:45:09.790Z,-8.22
2023-03-11T00:45:36.646Z,-7.72
2023-03-11T00:45:57.712Z,-8.19
2023-03-11T00:46:29.024Z,-8.52
2023-03-11T00:47:00.791Z,-7.27
2023-03-11T00:47:32.648Z,-6.89
2023-03-11T00:48:05.442Z,-8.84
2023-03-11T00:48:37.959Z,-8.73
2023-03-11T00:49:08.897Z,-8.02
2023-03-11T00:49:36.419Z,-7.30
2023-03-11T00:49:57.245Z,-8.13
2023-03-11T00:50:29.636Z,-7.53
2023-03-11T00:51:01.070Z,-7.85
2023-03-11T00:51:34.273Z,-7.21
2023-03-11T00:52:04.767Z,-7.25
2023-03-11T00:52:37.674Z,-8.15
2023-03-11T00:53:09.018Z,-8.17
2023-03-11T00:53:37.187Z,-8.50
2023-03-11T00:53:57.386Z,-8.40
2023-03-11T00:54:29.268Z,-6.52
2023-03-11T00:55:01.281Z,-8.14
2023-03-11T00:55:32.795Z,-7.96
2023-03-11T00:56:04.897Z,-7.24
2023-03-11T00:56:37.719Z,-7.71
2023-03-11T00:57:09.461Z,-7.53
2023-03-11T00:57:37.469Z,-7.31
2023-03-11T00:57:57.295Z,-6.73
2023-03-11T00:58:30.064Z,-7.93
2023-03-11T00:59:00.813Z,-8.50
2023-03-11T00:59:32.734Z,-8.13
2023-03-11T01:00:06.608Z,-7.82
2023-03-11T01:00:37.765Z,-8.77
2023-03-11T01:01:10.038Z,-8.08
2023-03-11T01:01:36.655Z,-7.48
2023-03-11T01:01:57.307Z,-7.51
2023-03-11T01:02:28.953Z,-7.14
2023-03-11T01:03:00.757Z,-7.28
2023-03-11T01:03:32.843Z,-5.58
2023-03-11T01:04:04.968Z,-7.10
2023-03-11T01:04:37.976Z,-8.37
2023-03-11T01:05:09.372Z,-8.17
2023-03-11T01:05:36.600Z,-7.67
2023-03-11T01:05:58.030Z,-6.88
2023-03-11T01:06:39.203Z,-6.31
2023-03-11T01:07:00.857Z,-8.08
2023-03-11T01:07:32.806Z,-8.82
2023-03-11T01:08:04.854Z,-7.10
2023-03-11T01:08:37.726Z,-5.89
2023-03-11T01:09:09.087Z,-7.39
2023-03-11T01:09:36.560Z,-7.55
2023-03-11T01:09:57.254Z,-7.35
2023-03-11T01:10:29.430Z,-7.31
2023-03-11T01:11:00.823Z,-6.68
2023-03-11T01:11:32.651Z,-7.31
2023-03-11T01:12:05.005Z,-7.48
2023-03-11T01:12:37.704Z,-6.21
2023-03-11T01:13:08.848Z,-8.14
2023-03-11T01:13:36.609Z,-8.17
2023-03-11T01:13:57.294Z,-7.48
2023-03-11T01:14:29.101Z,-8.43
2023-03-11T01:15:01.855Z,-7.35
2023-03-11T01:15:32.905Z,-7.67
2023-03-11T01:16:05.053Z,-7.18
2023-03-11T01:16:37.658Z,-7.28
2023-03-11T01:17:08.960Z,-6.88
2023-03-11T01:17:36.432Z,-7.93
2023-03-11T01:17:57.335Z,-8.34
2023-03-11T01:18:29.104Z,-7.10
2023-03-11T01:19:00.820Z,-6.68
2023-03-11T01:19:32.722Z,-7.11
2023-03-11T01:20:06.037Z,-7.54
2023-03-11T01:20:38.187Z,-8.23
2023-03-11T01:21:09.031Z,-8.09
2023-03-11T01:21:37.354Z,-8.09
2023-03-11T01:21:57.312Z,-7.83
2023-03-11T01:22:28.963Z,-6.92
2023-03-11T01:23:00.770Z,-6.41
2023-03-11T01:23:32.709Z,-8.06
2023-03-11T01:24:04.844Z,-8.70
2023-03-11T01:24:37.725Z,-7.55
2023-03-11T01:25:09.456Z,-7.18
2023-03-11T01:25:36.888Z,-6.52
2023-03-11T01:25:57.657Z,-7.93
2023-03-11T01:26:29.266Z,-7.18
2023-03-11T01:27:00.922Z,-7.48
2023-03-11T01:27:32.736Z,-6.96
2023-03-11T01:28:05.130Z,-7.10
2023-03-11T01:28:37.783Z,-7.79
2023-03-11T01:29:08.946Z,-8.09
2023-03-11T01:29:36.444Z,-7.91
2023-03-11T01:29:57.283Z,-8.46
2023-03-11T01:30:29.790Z,-8.06
2023-03-11T01:31:00.855Z,-7.47
2023-03-11T01:31:32.642Z,-8.23
2023-03-11T01:32:04.954Z,-8.09
2023-03-11T01:32:39.151Z,-7.86
2023-03-11T01:33:08.962Z,-7.79
2023-03-11T01:33:36.360Z,-7.34
2023-03-11T01:33:57.317Z,-7.63
2023-03-11T01:34:29.126Z,-7.16
2023-03-11T01:35:01.252Z,-7.16
2023-03-11T01:35:32.714Z,-7.51
2023-03-11T01:36:04.891Z,-8.06
2023-03-11T01:36:38.995Z,-7.47
2023-03-11T01:37:09.175Z,-7.07
2023-03-11T01:37:36.457Z,-7.54
2023-03-11T01:37:57.244Z,-7.67
2023-03-11T01:38:30.775Z,-8.81
2023-03-11T01:39:00.847Z,-7.60
2023-03-11T01:39:32.836Z,-7.76
2023-03-11T01:40:06.199Z,-7.25
2023-03-11T01:40:37.867Z,-8.71
2023-03-11T01:41:08.805Z,-8.71
2023-03-11T01:41:37.750Z,-8.43
2023-03-11T01:41:57.471Z,-7.25
2023-03-11T01:42:29.039Z,-7.30
2023-03-11T01:43:01.320Z,-8.12
2023-03-11T01:43:33.024Z,-8.09
2023-03-11T01:44:04.939Z,-8.16
2023-03-11T01:44:37.783Z,-8.63
2023-03-11T01:45:09.813Z,-7.83
2023-03-11T01:45:37.174Z,-8.16
2023-03-11T01:45:57.983Z,-7.83
2023-03-11T01:46:29.549Z,-8.63
2023-03-11T01:47:00.763Z,-8.37
2023-03-11T01:47:17.299Z,-8.09
2023-03-11T01:47:38.639Z,-7.79
2023-03-11T01:48:04.870Z,-8.63
2023-03-11T01:48:37.808Z,-8.78
2023-03-11T01:49:08.931Z,-8.01
2023-03-11T01:49:36.433Z,-8.01
2023-03-11T01:49:57.326Z,-8.06
2023-03-11T01:50:29.516Z,-7.43
2023-03-11T01:51:00.903Z,-7.95
2023-03-11T01:51:17.287Z,-7.54
2023-03-11T01:51:38.494Z,-8.37
2023-03-11T01:52:04.880Z,-8.09
2023-03-11T01:52:37.611Z,-7.83
2023-03-11T01:53:08.868Z,-7.34
2023-03-11T01:53:37.274Z,-6.72
2023-03-11T01:53:57.316Z,-8.29
2023-03-11T01:54:29.155Z,-7.71
2023-03-11T01:55:01.312Z,-8.75
2023-03-11T01:55:17.340Z,-8.50
2023-03-11T01:55:38.902Z,-8.09
2023-03-11T01:56:04.901Z,-8.23
2023-03-11T01:56:37.888Z,-6.23
2023-03-11T01:57:08.913Z,-7.60
2023-03-11T01:57:36.506Z,-8.75
2023-03-11T01:57:57.280Z,-7.63
2023-03-11T01:58:29.626Z,-8.53
2023-03-11T01:59:01.992Z,-7.95
2023-03-11T01:59:17.776Z,-8.06
2023-03-11T01:59:38.485Z,-8.53
2023-03-11T02:00:06.811Z,-8.20
2023-03-11T02:00:37.768Z,-8.23
2023-03-11T02:01:09.543Z,-8.78
2023-03-11T02:01:38.193Z,-8.56
2023-03-11T02:01:57.234Z,-8.59
2023-03-11T02:02:28.990Z,-7.30
2023-03-11T02:03:00.881Z,-7.16
2023-03-11T02:03:17.884Z,-7.07
2023-03-11T02:03:38.936Z,-7.91
2023-03-11T02:04:04.847Z,-7.67
2023-03-11T02:04:37.752Z,-7.86
2023-03-11T02:05:09.322Z,-8.23
2023-03-11T02:05:36.438Z,-9.04
2023-03-11T02:05:57.774Z,-7.67
2023-03-11T02:06:29.171Z,-7.71
2023-03-11T02:07:00.779Z,-7.71
2023-03-11T02:07:17.288Z,-7.43
2023-03-11T02:07:38.835Z,-8.29
2023-03-11T02:08:05.035Z,-7.34
2023-03-11T02:08:38.142Z,-7.67
2023-03-11T02:09:09.219Z,-8.56
2023-03-11T02:09:36.586Z,-8.06
2023-03-11T02:09:57.269Z,-7.63
2023-03-11T02:10:29.346Z,-8.66
2023-03-11T02:11:00.848Z,-8.23
2023-03-11T02:11:17.388Z,-8.66
2023-03-11T02:11:38.618Z,-8.37
2023-03-11T02:12:04.990Z,-7.91
2023-03-11T02:12:37.659Z,-8.09
2023-03-11T02:13:09.471Z,-8.40
2023-03-11T02:13:36.515Z,-8.09
2023-03-11T02:13:57.755Z,-7.25
2023-03-11T02:14:29.035Z,-7.98
2023-03-11T02:15:02.198Z,-7.03
2023-03-11T02:15:17.366Z,-6.68
2023-03-11T02:15:40.140Z,-7.16
2023-03-11T02:16:05.092Z,-7.79
2023-03-11T02:16:37.930Z,-7.34
2023-03-11T02:17:08.942Z,-6.88
2023-03-11T02:17:36.873Z,-7.60
2023-03-11T02:17:57.251Z,-7.67
2023-03-11T02:18:29.360Z,-7.54
2023-03-11T02:19:00.789Z,-7.63
2023-03-11T02:19:17.364Z,-7.11
2023-03-11T02:19:38.934Z,-7.54
2023-03-11T02:20:05.908Z,-8.46
2023-03-11T02:20:38.251Z,-7.71
2023-03-11T02:21:08.892Z,-6.77
2023-03-11T02:21:36.965Z,-7.83
2023-03-11T02:21:57.227Z,-7.83
2023-03-11T02:22:29.089Z,-7.71
2023-03-11T02:23:00.892Z,-7.76
2023-03-11T02:23:17.516Z,-7.98
2023-03-11T02:23:38.504Z,-7.91
2023-03-11T02:24:04.955Z,-8.23
2023-03-11T02:24:37.837Z,-7.34
2023-03-11T02:25:09.356Z,-7.22
2023-03-11T02:25:36.382Z,-7.34
2023-03-11T02:25:58.017Z,-7.63
2023-03-11T02:26:29.242Z,-7.71
2023-03-11T02:27:00.928Z,-8.09
2023-03-11T02:27:17.285Z,-7.91
2023-03-11T02:27:38.732Z,-8.26
2023-03-11T02:28:05.005Z,-7.03
2023-03-11T02:28:37.563Z,-7.03
2023-03-11T02:29:09.104Z,-7.25
2023-03-11T02:29:36.519Z,-7.43
2023-03-11T02:29:57.250Z,-7.76
2023-03-11T02:30:30.222Z,-8.09
2023-03-11T02:31:00.847Z,-8.16
2023-03-11T02:31:17.381Z,-7.65
2023-03-11T02:31:39.084Z,-7.02
2023-03-11T02:32:04.905Z,-7.26
2023-03-11T02:32:37.687Z,-7.95
2023-03-11T02:33:09.169Z,-8.09
2023-03-11T02:33:36.350Z,-7.11
2023-03-11T02:33:57.314Z,-7.79
2023-03-11T02:34:28.979Z,-7.95
2023-03-11T02:35:01.667Z,-7.34
2023-03-11T02:35:17.423Z,-6.92
2023-03-11T02:35:38.959Z,-6.04
2023-03-11T02:36:04.956Z,-6.92
2023-03-11T02:36:37.548Z,-7.83
2023-03-11T02:37:09.324Z,-7.95
2023-03-11T02:37:36.309Z,-7.25
2023-03-11T02:37:57.105Z,-7.16
2023-03-11T02:38:29.064Z,-7.11
2023-03-11T02:39:01.614Z,-7.79
2023-03-11T02:39:32.808Z,-7.47
2023-03-11T02:40:06.096Z,-6.92
2023-03-11T02:40:37.950Z,-7.76
2023-03-11T02:41:09.082Z,-7.98
2023-03-11T02:41:36.449Z,-7.71
2023-03-11T02:41:57.227Z,-7.16
2023-03-11T02:42:29.408Z,-7.76
2023-03-11T02:43:00.917Z,-8.09
2023-03-11T02:43:17.383Z,-8.78
2023-03-11T02:43:38.548Z,-8.56
2023-03-11T02:44:04.953Z,-7.63
2023-03-11T02:44:37.678Z,-7.48
2023-03-11T02:45:10.171Z,-8.40
2023-03-11T02:45:36.583Z,-7.60
2023-03-11T02:45:57.740Z,-6.88
2023-03-11T02:46:29.178Z,-7.64
2023-03-11T02:47:01.070Z,-7.96
2023-03-11T02:47:17.386Z,-7.64
2023-03-11T02:47:38.678Z,-7.51
2023-03-11T02:48:04.884Z,-7.00
2023-03-11T02:48:37.467Z,-6.82
2023-03-11T02:49:08.914Z,-7.49
2023-03-11T02:49:36.322Z,-7.61
2023-03-11T02:49:57.576Z,-7.25
2023-03-11T02:50:30.804Z,-6.47
2023-03-11T02:51:00.948Z,-6.34
2023-03-11T02:51:17.340Z,-6.47
2023-03-11T02:51:38.541Z,-5.83
2023-03-11T02:52:04.972Z,-6.23
2023-03-11T02:52:37.531Z,-8.49
2023-03-11T02:53:09.093Z,-8.86
2023-03-11T02:53:36.580Z,-8.16
2023-03-11T02:53:57.269Z,-7.27
2023-03-11T02:54:29.518Z,-7.23
2023-03-11T02:55:01.617Z,-7.43
2023-03-11T02:55:33.156Z,-6.80
2023-03-11T02:56:05.527Z,-7.69
2023-03-11T02:56:37.868Z,-6.48
2023-03-11T02:57:09.125Z,-7.39
2023-03-11T02:57:36.491Z,-7.04
2023-03-11T02:57:57.268Z,-6.96
2023-03-11T02:58:29.228Z,-7.58
2023-03-11T02:59:00.929Z,-6.79
2023-03-11T02:59:17.311Z,-6.75
2023-03-11T02:59:39.659Z,-6.53
2023-03-11T03:00:06.684Z,-7.13
2023-03-11T03:00:37.865Z,-7.28
2023-03-11T03:01:09.588Z,-6.65
2023-03-11T03:01:36.330Z,-6.89
2023-03-11T03:01:57.240Z,-6.14
2023-03-11T03:02:29.046Z,-6.75
2023-03-11T03:03:00.924Z,-6.04
2023-03-11T03:03:17.284Z,-5.78
2023-03-11T03:03:38.523Z,-6.75
2023-03-11T03:04:05.016Z,-6.29
2023-03-11T03:04:38.005Z,-6.61
2023-03-11T03:05:09.342Z,-6.39
2023-03-11T03:05:36.643Z,-7.36
2023-03-11T03:05:58.152Z,-6.86
2023-03-11T03:06:29.175Z,-6.90
2023-03-11T03:07:00.903Z,-5.50
2023-03-11T03:07:17.465Z,-7.18
2023-03-11T03:07:38.634Z,-6.86
2023-03-11T03:08:04.964Z,-7.99
2023-03-11T03:08:37.698Z,-6.86
2023-03-11T03:09:09.121Z,-6.82
2023-03-11T03:09:36.412Z,-6.82
2023-03-11T03:09:57.793Z,-6.39
2023-03-11T03:10:29.452Z,-6.51
2023-03-11T03:11:00.991Z,-6.75
2023-03-11T03:11:17.294Z,-6.75
2023-03-11T03:11:38.527Z,-6.51
2023-03-11T03:12:04.976Z,-7.79
2023-03-11T03:12:38.062Z,-6.24
2023-03-11T03:13:09.315Z,-6.65
2023-03-11T03:13:37.521Z,-6.69
2023-03-11T03:13:57.350Z,-6.29
2023-03-11T03:14:29.124Z,-6.47
2023-03-11T03:15:02.244Z,-7.18
2023-03-11T03:15:17.375Z,-7.46
2023-03-11T03:15:38.967Z,-7.21
2023-03-11T03:16:05.036Z,-6.51
2023-03-11T03:16:37.716Z,-6.51
2023-03-11T03:17:09.132Z,-7.66
2023-03-11T03:17:36.519Z,-7.71
2023-03-11T03:17:57.219Z,-6.61
2023-03-11T03:18:29.307Z,-7.26
2023-03-11T03:19:01.249Z,-8.05
2023-03-11T03:19:17.332Z,-7.60
2023-03-11T03:19:38.672Z,-7.11
2023-03-11T03:20:06.034Z,-7.46
2023-03-11T03:20:37.988Z,-7.43
2023-03-11T03:21:09.110Z,-7.79
2023-03-11T03:21:37.121Z,-8.02
2023-03-11T03:21:57.290Z,-7.21
2023-03-11T03:22:29.050Z,-6.69
2023-03-11T03:23:00.909Z,-7.57
2023-03-11T03:23:17.312Z,-7.46
2023-03-11T03:23:38.451Z,-7.43
2023-03-11T03:24:05.000Z,-7.21
2023-03-11T03:24:37.819Z,-6.39
2023-03-11T03:25:09.574Z,-6.98
2023-03-11T03:25:36.564Z,-7.14
2023-03-11T03:25:57.737Z,-6.51
2023-03-11T03:26:29.130Z,-7.26
2023-03-11T03:27:00.827Z,-7.43
2023-03-11T03:27:17.245Z,-7.11
2023-03-11T03:27:38.763Z,-7.11
2023-03-11T03:28:05.412Z,-7.32
2023-03-11T03:28:37.654Z,-6.20
2023-03-11T03:29:09.014Z,-6.13
2023-03-11T03:29:36.514Z,-6.78
2023-03-11T03:29:57.221Z,-7.66
2023-03-11T03:30:30.200Z,-7.71
2023-03-11T03:31:01.022Z,-7.02
2023-03-11T03:31:17.414Z,-6.20
2023-03-11T03:31:38.645Z,-6.29
2023-03-11T03:32:05.755Z,-7.32
2023-03-11T03:32:37.753Z,-6.13
2023-03-11T03:33:09.123Z,-6.39
2023-03-11T03:33:36.424Z,-6.90
2023-03-11T03:33:57.346Z,-7.14
2023-03-11T03:34:29.058Z,-6.69
2023-03-11T03:35:01.589Z,-7.43
2023-03-11T03:35:32.904Z,-7.14
2023-03-11T03:36:05.131Z,-7.50
2023-03-11T03:36:37.684Z,-7.14
2023-03-11T03:37:09.515Z,-8.00
2023-03-11T03:37:36.431Z,-7.05
2023-03-11T03:37:57.204Z,-6.98
2023-03-11T03:38:29.288Z,-7.31
2023-03-11T03:39:00.987Z,-7.47
2023-03-11T03:39:17.360Z,-6.74
2023-03-11T03:39:38.509Z,-6.66
2023-03-11T03:40:06.044Z,-6.05
2023-03-11T03:40:37.627Z,-7.17
2023-03-11T03:41:09.333Z,-6.32
2023-03-11T03:41:36.306Z,-6.74
2023-03-11T03:41:57.249Z,-6.74
2023-03-11T03:42:29.339Z,-6.90
2023-03-11T03:43:00.898Z,-6.13
2023-03-11T03:43:17.552Z,-6.32
2023-03-11T03:43:38.653Z,-6.24
2023-03-11T03:44:05.110Z,-6.36
2023-03-11T03:44:37.866Z,-7.98
2023-03-11T03:45:10.418Z,-7.10
2023-03-11T03:45:37.155Z,-6.24
2023-03-11T03:45:57.816Z,-6.54
2023-03-11T03:46:29.035Z,-5.98
2023-03-11T03:47:00.977Z,-5.98
2023-03-11T03:47:17.448Z,-7.02
2023-03-11T03:47:38.928Z,-7.28
2023-03-11T03:48:04.941Z,-6.24
2023-03-11T03:48:37.474Z,-6.36
2023-03-11T03:49:09.019Z,-6.83
2023-03-11T03:49:36.963Z,-6.70
2023-03-11T03:49:57.488Z,-6.90
2023-03-11T03:50:29.509Z,-6.47
2023-03-11T03:51:01.293Z,-7.05
2023-03-11T03:51:32.917Z,-6.29
2023-03-11T03:52:05.042Z,-5.95
2023-03-11T03:52:37.788Z,-5.95
2023-03-11T03:53:09.133Z,-5.55
2023-03-11T03:53:36.724Z,-5.66
2023-03-11T03:53:57.306Z,-5.55
2023-03-11T03:54:29.239Z,-5.50
2023-03-11T03:55:01.509Z,-6.29
2023-03-11T03:55:17.369Z,-6.69
2023-03-11T03:55:38.994Z,-5.92
2023-03-11T03:56:05.172Z,-6.86
2023-03-11T03:56:38.053Z,-7.04
2023-03-11T03:57:09.145Z,-6.61
2023-03-11T03:57:36.519Z,-7.13
2023-03-11T03:57:57.775Z,-7.00
2023-03-11T03:58:29.201Z,-6.65
2023-03-11T03:59:00.983Z,-6.47
2023-03-11T03:59:17.391Z,-6.53
2023-03-11T03:59:38.587Z,-6.18
2023-03-11T04:00:06.920Z,-6.89
2023-03-11T04:00:37.743Z,-6.27
2023-03-11T04:01:09.700Z,-6.09
2023-03-11T04:01:36.509Z,-7.50
2023-03-11T04:01:57.273Z,-6.27
2023-03-11T04:02:29.234Z,-5.69
2023-03-11T04:03:00.996Z,-5.39
2023-03-11T04:03:17.571Z,-5.69
2023-03-11T04:03:38.759Z,-6.27
2023-03-11T04:04:05.054Z,-5.97
2023-03-11T04:04:37.627Z,-6.18
2023-03-11T04:05:09.303Z,-7.61
2023-03-11T04:05:36.671Z,-7.25
2023-03-11T04:05:57.687Z,-6.27
2023-03-11T04:06:29.112Z,-6.61
2023-03-11T04:07:01.143Z,-5.24
2023-03-11T04:07:18.453Z,-6.27
2023-03-11T04:07:38.789Z,-5.69
2023-03-11T04:08:05.554Z,-6.18
2023-03-11T04:08:39.056Z,-5.74
2023-03-11T04:09:10.588Z,-7.00
2023-03-11T04:09:37.072Z,-6.43
2023-03-11T04:09:57.325Z,-6.18
2023-03-11T04:10:29.530Z,-5.50
2023-03-11T04:11:00.987Z,-7.44
2023-03-11T04:11:17.680Z,-7.03
2023-03-11T04:11:38.604Z,-6.48
2023-03-11T04:12:05.030Z,-6.76
2023-03-11T04:12:37.745Z,-6.80
2023-03-11T04:13:09.113Z,-6.01
2023-03-11T04:13:36.513Z,-6.23
2023-03-11T04:13:57.220Z,-6.52
2023-03-11T04:14:29.248Z,-6.41
2023-03-11T04:15:02.293Z,-7.07
2023-03-11T04:15:17.576Z,-7.18
2023-03-11T04:15:38.881Z,-6.57
2023-03-11T04:16:04.993Z,-7.18
2023-03-11T04:16:37.594Z,-7.14
2023-03-11T04:17:09.495Z,-7.23
2023-03-11T04:17:36.413Z,-6.71
2023-03-11T04:17:57.235Z,-6.37
2023-03-11T04:18:29.717Z,-6.80
2023-03-11T04:19:01.036Z,-6.61
2023-03-11T04:19:17.427Z,-6.89
2023-03-11T04:19:38.669Z,-5.93
2023-03-11T04:20:06.072Z,-6.76
2023-03-11T04:20:37.568Z,-6.76
2023-03-11T04:21:09.052Z,-5.38
2023-03-11T04:21:36.840Z,-5.93
2023-03-11T04:21:57.249Z,-7.18
2023-03-11T04:22:29.165Z,-6.97
2023-03-11T04:23:01.011Z,-7.46
2023-03-11T04:23:17.514Z,-7.18
2023-03-11T04:23:38.570Z,-7.34
2023-03-11T04:24:04.964Z,-6.97
2023-03-11T04:24:37.551Z,-6.57
2023-03-11T04:25:09.415Z,-5.52
2023-03-11T04:25:36.460Z,-5.83
2023-03-11T04:25:57.621Z,-6.80
2023-03-11T04:26:29.156Z,-6.27
2023-03-11T04:27:01.001Z,-6.61
2023-03-11T04:27:17.520Z,-6.65
2023-03-11T04:27:38.599Z,-6.52
2023-03-11T04:28:06.195Z,-5.03
2023-03-11T04:28:37.662Z,-6.11
2023-03-11T04:29:09.253Z,-6.76
2023-03-11T04:29:36.802Z,-7.27
2023-03-11T04:29:57.297Z,-6.32
2023-03-11T04:30:29.943Z,-7.03
2023-03-11T04:31:01.675Z,-6.67
2023-03-11T04:31:32.886Z,-6.52
2023-03-11T04:32:05.122Z,-6.86
2023-03-11T04:32:38.374Z,-5.69
2023-03-11T04:33:08.997Z,-6.06
2023-03-11T04:33:37.030Z,-5.31
2023-03-11T04:33:57.243Z,-6.28
2023-03-11T04:34:29.160Z,-5.88
2023-03-11T04:35:01.733Z,-5.69
2023-03-11T04:35:17.391Z,-4.89
2023-03-11T04:35:39.054Z,-6.61
2023-03-11T04:36:05.097Z,-6.76
2023-03-11T04:36:37.840Z,-5.52
2023-03-11T04:37:09.166Z,-7.10
2023-03-11T04:37:36.463Z,-6.06
2023-03-11T04:37:57.223Z,-6.11
2023-03-11T04:38:29.388Z,-5.88
2023-03-11T04:39:01.486Z,-6.76
2023-03-11T04:39:33.218Z,-7.27
2023-03-11T04:40:06.148Z,-7.03
2023-03-11T04:40:37.644Z,-7.10
2023-03-11T04:41:09.000Z,-6.86
2023-03-11T04:41:36.537Z,-6.57
2023-03-11T04:41:57.324Z,-6.32
2023-03-11T04:42:29.305Z,-6.71
2023-03-11T04:43:01.016Z,-6.41
2023-03-11T04:43:17.476Z,-6.32
2023-03-11T04:43:38.573Z,-5.93
2023-03-11T04:44:04.989Z,-6.01
2023-03-11T04:44:37.851Z,-6.37
2023-03-11T04:45:09.866Z,-5.44
2023-03-11T04:45:36.930Z,-5.16
2023-03-11T04:45:57.750Z,-6.06
2023-03-11T04:46:29.611Z,-5.52
2023-03-11T04:47:01.083Z,-6.28
2023-03-11T04:47:17.584Z,-6.52
2023-03-11T04:47:38.729Z,-6.37
2023-03-11T04:48:05.102Z,-7.07
2023-03-11T04:48:37.573Z,-5.44
2023-03-11T04:49:09.307Z,-6.23
2023-03-11T04:49:36.514Z,-6.48
2023-03-11T04:49:57.722Z,-6.23
2023-03-11T04:50:30.036Z,-5.52
2023-03-11T04:51:00.913Z,-5.88
2023-03-11T04:51:17.701Z,-5.88
2023-03-11T04:51:39.012Z,-6.89
2023-03-11T04:52:05.035Z,-7.14
2023-03-11T04:52:37.742Z,-6.57
2023-03-11T04:53:09.039Z,-7.14
2023-03-11T04:53:36.477Z,-7.31
2023-03-11T04:53:57.441Z,-6.76
2023-03-11T04:54:29.277Z,-6.23
2023-03-11T04:55:03.618Z,-5.69
2023-03-11T04:55:32.909Z,-5.58
2023-03-11T04:56:05.067Z,-4.45
2023-03-11T04:56:37.570Z,-6.06
2023-03-11T04:57:09.356Z,-5.52
2023-03-11T04:57:36.724Z,-5.83
2023-03-11T04:57:57.328Z,-5.44
2023-03-11T04:58:29.388Z,-6.52
2023-03-11T04:59:00.957Z,-6.06
2023-03-11T04:59:33.611Z,-6.29
2023-03-11T05:00:06.952Z,-6.07
2023-03-11T05:00:37.636Z,-6.67
2023-03-11T05:01:10.489Z,-5.59
2023-03-11T05:01:36.752Z,-6.38
2023-03-11T05:01:57.207Z,-6.22
2023-03-11T05:02:29.188Z,-7.21
2023-03-11T05:03:01.071Z,-5.59
2023-03-11T05:03:33.381Z,-6.12
2023-03-11T05:04:05.015Z,-5.44
2023-03-11T05:04:37.819Z,-5.44
2023-03-11T05:05:09.503Z,-7.21
2023-03-11T05:05:36.561Z,-7.85
2023-03-11T05:05:57.688Z,-7.53
2023-03-11T05:06:29.216Z,-5.76
2023-03-11T05:07:00.962Z,-5.31
2023-03-11T05:07:32.972Z,-7.21
2023-03-11T05:08:05.024Z,-6.78
2023-03-11T05:08:37.713Z,-7.04
2023-03-11T05:09:09.013Z,-7.13
2023-03-11T05:09:36.836Z,-7.71
2023-03-11T05:09:57.282Z,-7.68
2023-03-11T05:10:31.781Z,-6.00
2023-03-11T05:11:01.593Z,-6.92
2023-03-11T05:11:32.946Z,-7.25
2023-03-11T05:12:05.100Z,-7.49
2023-03-11T05:12:38.009Z,-7.56
2023-03-11T05:13:09.605Z,-6.17
2023-03-11T05:13:36.749Z,-6.63
2023-03-11T05:13:57.183Z,-6.89
2023-03-11T05:14:29.471Z,-6.97
2023-03-11T05:15:02.406Z,-7.07
2023-03-11T05:15:33.799Z,-6.28
2023-03-11T05:16:05.076Z,-6.97
2023-03-11T05:16:37.843Z,-6.23
2023-03-11T05:17:09.442Z,-6.57
2023-03-11T05:17:36.966Z,-6.41
2023-03-11T05:17:57.597Z,-6.11
2023-03-11T05:18:29.438Z,-6.01
2023-03-11T05:19:01.226Z,-6.41
2023-03-11T05:19:33.111Z,-6.71
2023-03-11T05:20:05.982Z,-6.22
2023-03-11T05:20:37.593Z,-6.82
2023-03-11T05:21:09.270Z,-6.29
2023-03-11T05:21:36.720Z,-5.44
2023-03-11T05:21:57.206Z,-6.29
2023-03-11T05:22:29.098Z,-5.84
2023-03-11T05:23:01.109Z,-6.00
2023-03-11T05:23:33.016Z,-6.38
2023-03-11T05:24:05.357Z,-6.38
2023-03-11T05:24:37.689Z,-7.21
2023-03-11T05:25:09.560Z,-5.89
2023-03-11T05:25:36.612Z,-5.76
2023-03-11T05:25:57.591Z,-6.74
2023-03-11T05:26:29.284Z,-6.38
2023-03-11T05:27:01.118Z,-5.89
2023-03-11T05:27:32.960Z,-6.29
2023-03-11T05:28:05.039Z,-6.34
2023-03-11T05:28:37.696Z,-5.84
2023-03-11T05:29:09.070Z,-6.86
2023-03-11T05:29:36.494Z,-6.38
2023-03-11T05:29:57.315Z,-6.17
2023-03-11T05:30:30.029Z,-5.89
2023-03-11T05:31:01.166Z,-7.30
2023-03-11T05:31:33.353Z,-7.10
2023-03-11T05:32:05.147Z,-7.49
2023-03-11T05:32:37.667Z,-7.71
2023-03-11T05:33:09.223Z,-7.90
2023-03-11T05:33:36.687Z,-6.96
2023-03-11T05:33:57.266Z,-7.53
2023-03-11T05:34:29.075Z,-7.61
2023-03-11T05:35:01.973Z,-7.10
2023-03-11T05:35:33.308Z,-5.89
2023-03-11T05:36:05.732Z,-6.89
2023-03-11T05:36:38.327Z,-6.48
2023-03-11T05:37:09.142Z,-6.32
2023-03-11T05:37:36.493Z,-7.18
2023-03-11T05:37:57.449Z,-6.48
2023-03-11T05:38:29.238Z,-6.32
2023-03-11T05:39:01.148Z,-6.17
2023-03-11T05:39:33.141Z,-6.07
2023-03-11T05:40:06.056Z,-5.64
2023-03-11T05:40:38.031Z,-6.12
2023-03-11T05:41:09.128Z,-7.25
2023-03-11T05:41:36.869Z,-7.53
2023-03-11T05:41:57.752Z,-5.59
2023-03-11T05:42:29.259Z,-6.29
2023-03-11T05:43:02.062Z,-6.17
2023-03-11T05:43:33.406Z,-6.00
2023-03-11T05:44:05.091Z,-7.49
2023-03-11T05:44:37.836Z,-6.34
2023-03-11T05:45:10.239Z,-6.86
2023-03-11T05:45:37.287Z,-7.33
2023-03-11T05:45:58.121Z,-7.37
2023-03-11T05:46:29.440Z,-6.17
2023-03-11T05:47:01.689Z,-6.00
2023-03-11T05:47:35.092Z,-6.38
2023-03-11T05:48:05.397Z,-6.67
2023-03-11T05:48:37.862Z,-6.78
2023-03-11T05:49:09.298Z,-7.25
2023-03-11T05:49:36.782Z,-6.78
2023-03-11T05:49:57.636Z,-5.70
2023-03-11T05:50:29.793Z,-5.64
2023-03-11T05:51:01.330Z,-5.89
2023-03-11T05:51:33.197Z,-6.63
2023-03-11T05:52:05.368Z,-5.89
2023-03-11T05:52:37.823Z,-6.38
2023-03-11T05:53:09.468Z,-6.38
2023-03-11T05:53:36.920Z,-7.25
2023-03-11T05:53:57.611Z,-7.00
2023-03-11T05:54:29.305Z,-6.07
2023-03-11T05:55:02.047Z,-6.47
2023-03-11T05:55:33.180Z,-6.29
2023-03-11T05:56:05.242Z,-6.00
2023-03-11T05:56:37.831Z,-6.74
2023-03-11T05:57:09.226Z,-6.17
2023-03-11T05:57:36.958Z,-6.17
2023-03-11T05:57:57.932Z,-7.61
2023-03-11T05:58:29.759Z,-7.61
2023-03-11T05:59:01.318Z,-6.63
2023-03-11T05:59:33.244Z,-6.29
2023-03-11T06:00:07.195Z,-6.07
2023-03-11T06:00:38.092Z,-6.12
2023-03-11T06:01:09.977Z,-5.76
2023-03-11T06:01:38.039Z,-5.64
2023-03-11T06:01:57.724Z,-7.00
2023-03-11T06:02:29.403Z,-6.92
2023-03-11T06:03:01.341Z,-7.68
2023-03-11T06:03:33.260Z,-6.34
2023-03-11T06:04:05.705Z,-6.17
2023-03-11T06:04:38.021Z,-7.00
2023-03-11T06:05:12.995Z,-6.38